Terminal Aerodrome Forecast
Issued by NWS

Home | Current Version | Previous Version | Graphics & Text | Print | Product List | Glossary On
Versions: 1 2 3 4 5 6 7 8 9 10 11 12 13 14 15 16 17 18
000
FTUS43 KPAH 191728
TAFCGI
TAF
KCGI 191728Z 1918/2018 28005KT P6SM SCT040
     FM200000 18003KT P6SM SKC
     FM200800 00000KT 3SM BR FEW030 SCT060
     FM201400 20005KT P6SM SCT040=

USA.gov is the U.S. government's official web portal to all federal, state and local government web resources and services.